sensor_id;sensor_type;location;lat;lon;timestamp;P1;durP1;ratioP1;P2;durP2;ratioP2
75589;SDS011;64169;47.240;11.312;2023-04-30T00:02:17;5.50;;;2.30;;
75589;SDS011;64169;47.240;11.312;2023-04-30T00:04:43;5.53;;;2.10;;
75589;SDS011;64169;47.240;11.312;2023-04-30T00:07:08;4.60;;;1.67;;
75589;SDS011;64169;47.240;11.312;2023-04-30T00:09:34;5.35;;;1.73;;
75589;SDS011;64169;47.240;11.312;2023-04-30T00:12:00;4.93;;;2.00;;
75589;SDS011;64169;47.240;11.312;2023-04-30T00:14:25;5.45;;;2.20;;
75589;SDS011;64169;47.240;11.312;2023-04-30T00:16:51;5.18;;;1.80;;
75589;SDS011;64169;47.240;11.312;2023-04-30T00:19:16;4.78;;;2.10;;
75589;SDS011;64169;47.240;11.312;2023-04-30T00:21:42;5.53;;;2.00;;
75589;SDS011;64169;47.240;11.312;2023-04-30T00:24:07;5.68;;;2.08;;
75589;SDS011;64169;47.240;11.312;2023-04-30T00:26:32;4.90;;;2.10;;
75589;SDS011;64169;47.240;11.312;2023-04-30T00:28:58;5.78;;;2.28;;
75589;SDS011;64169;47.240;11.312;2023-04-30T00:31:23;5.90;;;2.88;;
75589;SDS011;64169;47.240;11.312;2023-04-30T00:33:49;5.97;;;3.00;;
75589;SDS011;64169;47.240;11.312;2023-04-30T00:36:14;6.28;;;2.92;;
75589;SDS011;64169;47.240;11.312;2023-04-30T00:38:40;6.55;;;2.88;;
75589;SDS011;64169;47.240;11.312;2023-04-30T00:41:05;6.65;;;3.30;;
75589;SDS011;64169;47.240;11.312;2023-04-30T00:43:30;6.55;;;2.97;;
75589;SDS011;64169;47.240;11.312;2023-04-30T00:45:56;7.07;;;3.15;;
75589;SDS011;64169;47.240;11.312;2023-04-30T00:48:23;6.00;;;2.80;;
75589;SDS011;64169;47.240;11.312;2023-04-30T00:50:48;6.55;;;3.30;;
75589;SDS011;64169;47.240;11.312;2023-04-30T00:53:14;7.88;;;3.30;;
75589;SDS011;64169;47.240;11.312;2023-04-30T00:55:39;6.07;;;2.75;;
75589;SDS011;64169;47.240;11.312;2023-04-30T00:58:06;9.32;;;3.75;;
75589;SDS011;64169;47.240;11.312;2023-04-30T01:00:31;6.07;;;3.30;;
75589;SDS011;64169;47.240;11.312;2023-04-30T01:02:57;6.97;;;3.40;;
75589;SDS011;64169;47.240;11.312;2023-04-30T01:05:23;7.05;;;3.35;;
75589;SDS011;64169;47.240;11.312;2023-04-30T01:07:48;8.32;;;3.55;;
75589;SDS011;64169;47.240;11.312;2023-04-30T01:10:14;7.15;;;3.42;;
75589;SDS011;64169;47.240;11.312;2023-04-30T01:12:43;7.10;;;3.20;;
75589;SDS011;64169;47.240;11.312;2023-04-30T01:15:20;6.05;;;3.03;;
75589;SDS011;64169;47.240;11.312;2023-04-30T01:20:14;8.90;;;3.42;;
75589;SDS011;64169;47.240;11.312;2023-04-30T01:23:46;6.28;;;3.33;;
75589;SDS011;64169;47.240;11.312;2023-04-30T01:28:57;6.85;;;3.95;;
75589;SDS011;64169;47.240;11.312;2023-04-30T01:31:26;6.82;;;3.85;;
75589;SDS011;64169;47.240;11.312;2023-04-30T01:33:52;7.88;;;3.90;;
75589;SDS011;64169;47.240;11.312;2023-04-30T01:52:51;7.05;;;3.15;;
75589;SDS011;64169;47.240;11.312;2023-04-30T01:58:09;7.20;;;3.67;;
75589;SDS011;64169;47.240;11.312;2023-04-30T02:00:35;8.05;;;3.90;;
75589;SDS011;64169;47.240;11.312;2023-04-30T02:03:00;7.60;;;3.42;;
75589;SDS011;64169;47.240;11.312;2023-04-30T02:05:26;7.90;;;3.10;;
75589;SDS011;64169;47.240;11.312;2023-04-30T02:07:52;6.47;;;3.35;;
75589;SDS011;64169;47.240;11.312;2023-04-30T02:10:19;8.38;;;3.78;;
75589;SDS011;64169;47.240;11.312;2023-04-30T02:12:46;6.40;;;3.05;;
75589;SDS011;64169;47.240;11.312;2023-04-30T02:15:12;8.55;;;3.97;;
75589;SDS011;64169;47.240;11.312;2023-04-30T02:17:38;9.43;;;3.35;;
75589;SDS011;64169;47.240;11.312;2023-04-30T02:20:03;7.45;;;3.25;;
75589;SDS011;64169;47.240;11.312;2023-04-30T02:22:29;11.27;;;4.18;;
75589;SDS011;64169;47.240;11.312;2023-04-30T02:24:55;10.10;;;4.75;;
75589;SDS011;64169;47.240;11.312;2023-04-30T02:27:21;9.68;;;4.43;;
75589;SDS011;64169;47.240;11.312;2023-04-30T02:29:48;9.50;;;4.40;;
75589;SDS011;64169;47.240;11.312;2023-04-30T02:32:13;8.70;;;4.63;;
75589;SDS011;64169;47.240;11.312;2023-04-30T02:34:39;8.73;;;4.70;;
75589;SDS011;64169;47.240;11.312;2023-04-30T02:37:05;9.55;;;4.93;;
75589;SDS011;64169;47.240;11.312;2023-04-30T02:39:31;10.88;;;5.20;;
75589;SDS011;64169;47.240;11.312;2023-04-30T02:41:57;11.98;;;6.07;;
75589;SDS011;64169;47.240;11.312;2023-04-30T02:44:22;11.05;;;5.85;;
75589;SDS011;64169;47.240;11.312;2023-04-30T02:46:48;12.48;;;6.07;;
75589;SDS011;64169;47.240;11.312;2023-04-30T02:49:14;12.40;;;6.30;;
75589;SDS011;64169;47.240;11.312;2023-04-30T02:51:40;12.68;;;6.32;;
75589;SDS011;64169;47.240;11.312;2023-04-30T02:54:06;13.05;;;6.22;;
75589;SDS011;64169;47.240;11.312;2023-04-30T02:56:31;16.40;;;6.50;;
75589;SDS011;64169;47.240;11.312;2023-04-30T02:58:56;12.48;;;6.85;;
75589;SDS011;64169;47.240;11.312;2023-04-30T03:01:22;13.65;;;6.57;;
75589;SDS011;64169;47.240;11.312;2023-04-30T03:03:47;16.20;;;6.90;;
75589;SDS011;64169;47.240;11.312;2023-04-30T03:06:13;14.82;;;7.32;;
75589;SDS011;64169;47.240;11.312;2023-04-30T03:08:38;13.50;;;6.53;;
75589;SDS011;64169;47.240;11.312;2023-04-30T03:11:03;15.40;;;6.60;;
75589;SDS011;64169;47.240;11.312;2023-04-30T03:13:29;13.45;;;6.95;;
75589;SDS011;64169;47.240;11.312;2023-04-30T03:15:58;14.13;;;6.15;;
75589;SDS011;64169;47.240;11.312;2023-04-30T03:18:24;14.73;;;7.15;;
75589;SDS011;64169;47.240;11.312;2023-04-30T03:20:49;15.45;;;7.60;;
75589;SDS011;64169;47.240;11.312;2023-04-30T03:23:15;14.45;;;6.50;;
75589;SDS011;64169;47.240;11.312;2023-04-30T03:25:40;18.20;;;7.20;;
75589;SDS011;64169;47.240;11.312;2023-04-30T03:28:06;14.10;;;6.80;;
75589;SDS011;64169;47.240;11.312;2023-04-30T03:30:31;14.57;;;7.13;;
75589;SDS011;64169;47.240;11.312;2023-04-30T03:32:57;16.17;;;7.03;;
75589;SDS011;64169;47.240;11.312;2023-04-30T03:35:22;12.35;;;5.97;;
75589;SDS011;64169;47.240;11.312;2023-04-30T03:37:47;14.95;;;6.78;;
75589;SDS011;64169;47.240;11.312;2023-04-30T03:40:13;13.18;;;6.85;;
75589;SDS011;64169;47.240;11.312;2023-04-30T03:42:38;18.75;;;7.22;;
75589;SDS011;64169;47.240;11.312;2023-04-30T03:45:04;13.43;;;6.30;;
75589;SDS011;64169;47.240;11.312;2023-04-30T03:47:30;15.60;;;7.35;;
75589;SDS011;64169;47.240;11.312;2023-04-30T03:49:55;13.30;;;6.45;;
75589;SDS011;64169;47.240;11.312;2023-04-30T03:52:20;14.57;;;7.05;;
75589;SDS011;64169;47.240;11.312;2023-04-30T03:54:46;15.55;;;6.75;;
75589;SDS011;64169;47.240;11.312;2023-04-30T03:57:12;15.35;;;6.75;;
75589;SDS011;64169;47.240;11.312;2023-04-30T03:59:38;12.48;;;6.78;;
75589;SDS011;64169;47.240;11.312;2023-04-30T04:02:04;13.50;;;6.05;;
75589;SDS011;64169;47.240;11.312;2023-04-30T04:04:30;14.98;;;6.90;;
75589;SDS011;64169;47.240;11.312;2023-04-30T04:06:56;14.95;;;7.03;;
75589;SDS011;64169;47.240;11.312;2023-04-30T04:09:21;14.82;;;6.95;;
75589;SDS011;64169;47.240;11.312;2023-04-30T04:11:47;14.70;;;7.13;;
75589;SDS011;64169;47.240;11.312;2023-04-30T04:14:13;13.40;;;6.32;;
75589;SDS011;64169;47.240;11.312;2023-04-30T04:16:38;12.52;;;6.05;;
75589;SDS011;64169;47.240;11.312;2023-04-30T04:19:03;13.20;;;6.90;;
75589;SDS011;64169;47.240;11.312;2023-04-30T04:21:29;15.02;;;7.03;;
75589;SDS011;64169;47.240;11.312;2023-04-30T04:23:55;15.55;;;6.50;;
75589;SDS011;64169;47.240;11.312;2023-04-30T04:26:20;11.40;;;5.93;;
75589;SDS011;64169;47.240;11.312;2023-04-30T04:28:49;14.05;;;6.97;;
75589;SDS011;64169;47.240;11.312;2023-04-30T04:31:15;14.60;;;6.68;;
75589;SDS011;64169;47.240;11.312;2023-04-30T04:33:41;12.23;;;6.22;;
75589;SDS011;64169;47.240;11.312;2023-04-30T04:36:07;15.63;;;7.45;;
75589;SDS011;64169;47.240;11.312;2023-04-30T04:38:32;13.90;;;6.85;;
75589;SDS011;64169;47.240;11.312;2023-04-30T04:40:58;16.05;;;6.43;;
75589;SDS011;64169;47.240;11.312;2023-04-30T04:43:23;12.77;;;6.13;;
75589;SDS011;64169;47.240;11.312;2023-04-30T04:45:49;15.70;;;6.97;;
75589;SDS011;64169;47.240;11.312;2023-04-30T04:48:14;12.45;;;7.05;;
75589;SDS011;64169;47.240;11.312;2023-04-30T04:50:40;14.55;;;8.02;;
75589;SDS011;64169;47.240;11.312;2023-04-30T04:53:05;17.58;;;8.18;;
75589;SDS011;64169;47.240;11.312;2023-04-30T04:55:31;14.13;;;6.32;;
75589;SDS011;64169;47.240;11.312;2023-04-30T04:57:56;14.18;;;6.93;;
75589;SDS011;64169;47.240;11.312;2023-04-30T05:00:21;13.68;;;7.13;;
75589;SDS011;64169;47.240;11.312;2023-04-30T05:02:47;13.90;;;7.05;;
75589;SDS011;64169;47.240;11.312;2023-04-30T05:05:14;14.82;;;6.68;;
75589;SDS011;64169;47.240;11.312;2023-04-30T05:07:39;12.63;;;5.90;;
75589;SDS011;64169;47.240;11.312;2023-04-30T05:10:05;15.77;;;6.55;;
75589;SDS011;64169;47.240;11.312;2023-04-30T05:12:31;14.30;;;6.93;;
75589;SDS011;64169;47.240;11.312;2023-04-30T05:14:57;13.90;;;6.78;;
75589;SDS011;64169;47.240;11.312;2023-04-30T05:17:23;13.93;;;6.35;;
75589;SDS011;64169;47.240;11.312;2023-04-30T05:19:49;13.73;;;6.60;;
75589;SDS011;64169;47.240;11.312;2023-04-30T05:22:15;12.85;;;7.05;;
75589;SDS011;64169;47.240;11.312;2023-04-30T05:24:41;14.75;;;7.03;;
75589;SDS011;64169;47.240;11.312;2023-04-30T05:27:06;15.45;;;7.35;;
75589;SDS011;64169;47.240;11.312;2023-04-30T05:29:32;14.00;;;6.80;;
75589;SDS011;64169;47.240;11.312;2023-04-30T05:31:58;14.23;;;6.47;;
75589;SDS011;64169;47.240;11.312;2023-04-30T05:34:23;14.65;;;6.78;;
75589;SDS011;64169;47.240;11.312;2023-04-30T05:36:48;13.68;;;6.68;;
75589;SDS011;64169;47.240;11.312;2023-04-30T05:39:14;14.35;;;7.80;;
75589;SDS011;64169;47.240;11.312;2023-04-30T05:41:40;13.00;;;6.75;;
75589;SDS011;64169;47.240;11.312;2023-04-30T05:44:05;14.63;;;6.55;;
75589;SDS011;64169;47.240;11.312;2023-04-30T05:46:31;16.92;;;7.57;;
75589;SDS011;64169;47.240;11.312;2023-04-30T05:48:56;14.57;;;6.80;;
75589;SDS011;64169;47.240;11.312;2023-04-30T05:51:22;16.05;;;7.00;;
75589;SDS011;64169;47.240;11.312;2023-04-30T05:53:47;13.70;;;6.35;;
75589;SDS011;64169;47.240;11.312;2023-04-30T05:56:13;13.57;;;8.07;;
75589;SDS011;64169;47.240;11.312;2023-04-30T05:58:38;13.82;;;7.50;;
75589;SDS011;64169;47.240;11.312;2023-04-30T06:01:04;13.27;;;6.70;;
75589;SDS011;64169;47.240;11.312;2023-04-30T06:03:29;12.52;;;6.43;;
75589;SDS011;64169;47.240;11.312;2023-04-30T06:05:55;14.65;;;6.68;;
75589;SDS011;64169;47.240;11.312;2023-04-30T06:08:21;11.75;;;6.05;;
75589;SDS011;64169;47.240;11.312;2023-04-30T06:10:46;14.43;;;6.70;;
75589;SDS011;64169;47.240;11.312;2023-04-30T06:13:12;12.93;;;6.50;;
75589;SDS011;64169;47.240;11.312;2023-04-30T06:15:38;11.85;;;5.43;;
75589;SDS011;64169;47.240;11.312;2023-04-30T06:18:05;12.90;;;6.20;;
75589;SDS011;64169;47.240;11.312;2023-04-30T06:20:31;14.10;;;6.55;;
75589;SDS011;64169;47.240;11.312;2023-04-30T06:22:56;16.17;;;7.93;;
75589;SDS011;64169;47.240;11.312;2023-04-30T06:25:22;13.65;;;7.10;;
75589;SDS011;64169;47.240;11.312;2023-04-30T06:27:47;13.52;;;6.63;;
75589;SDS011;64169;47.240;11.312;2023-04-30T06:30:13;14.52;;;6.50;;
75589;SDS011;64169;47.240;11.312;2023-04-30T06:32:38;14.18;;;6.60;;
75589;SDS011;64169;47.240;11.312;2023-04-30T06:35:04;13.82;;;6.75;;
75589;SDS011;64169;47.240;11.312;2023-04-30T06:37:29;13.20;;;7.13;;
75589;SDS011;64169;47.240;11.312;2023-04-30T06:39:59;13.98;;;7.22;;
75589;SDS011;64169;47.240;11.312;2023-04-30T06:42:25;11.68;;;6.15;;
75589;SDS011;64169;47.240;11.312;2023-04-30T06:44:50;15.32;;;6.68;;
75589;SDS011;64169;47.240;11.312;2023-04-30T06:47:16;12.80;;;6.47;;
75589;SDS011;64169;47.240;11.312;2023-04-30T06:49:41;12.65;;;6.93;;
75589;SDS011;64169;47.240;11.312;2023-04-30T06:52:07;13.93;;;6.93;;
75589;SDS011;64169;47.240;11.312;2023-04-30T06:54:32;14.93;;;7.03;;
75589;SDS011;64169;47.240;11.312;2023-04-30T06:56:57;15.82;;;7.57;;
75589;SDS011;64169;47.240;11.312;2023-04-30T06:59:23;17.08;;;9.13;;
75589;SDS011;64169;47.240;11.312;2023-04-30T07:01:48;16.95;;;8.10;;
75589;SDS011;64169;47.240;11.312;2023-04-30T07:04:14;14.40;;;7.80;;
75589;SDS011;64169;47.240;11.312;2023-04-30T07:06:39;13.55;;;7.03;;
75589;SDS011;64169;47.240;11.312;2023-04-30T07:09:05;13.00;;;6.72;;
75589;SDS011;64169;47.240;11.312;2023-04-30T07:11:31;13.45;;;6.10;;
75589;SDS011;64169;47.240;11.312;2023-04-30T07:13:56;15.18;;;6.80;;
75589;SDS011;64169;47.240;11.312;2023-04-30T07:16:23;13.43;;;6.07;;
75589;SDS011;64169;47.240;11.312;2023-04-30T07:18:49;11.55;;;6.13;;
75589;SDS011;64169;47.240;11.312;2023-04-30T07:21:15;13.43;;;7.07;;
75589;SDS011;64169;47.240;11.312;2023-04-30T07:23:40;13.52;;;6.43;;
75589;SDS011;64169;47.240;11.312;2023-04-30T07:26:06;13.38;;;6.68;;
75589;SDS011;64169;47.240;11.312;2023-04-30T07:28:32;12.02;;;6.55;;
75589;SDS011;64169;47.240;11.312;2023-04-30T07:30:57;13.35;;;5.70;;
75589;SDS011;64169;47.240;11.312;2023-04-30T07:33:23;13.50;;;6.00;;
75589;SDS011;64169;47.240;11.312;2023-04-30T07:35:48;10.82;;;5.15;;
75589;SDS011;64169;47.240;11.312;2023-04-30T07:38:14;11.00;;;5.90;;
75589;SDS011;64169;47.240;11.312;2023-04-30T07:40:41;11.90;;;5.57;;
75589;SDS011;64169;47.240;11.312;2023-04-30T07:43:06;9.77;;;4.95;;
75589;SDS011;64169;47.240;11.312;2023-04-30T07:45:32;11.55;;;5.68;;
75589;SDS011;64169;47.240;11.312;2023-04-30T07:47:58;12.68;;;5.80;;
75589;SDS011;64169;47.240;11.312;2023-04-30T07:50:24;9.20;;;4.50;;
75589;SDS011;64169;47.240;11.312;2023-04-30T07:52:52;10.57;;;5.40;;
75589;SDS011;64169;47.240;11.312;2023-04-30T07:55:17;9.98;;;5.10;;
75589;SDS011;64169;47.240;11.312;2023-04-30T07:57:43;13.55;;;5.88;;
75589;SDS011;64169;47.240;11.312;2023-04-30T08:00:08;11.00;;;5.00;;
75589;SDS011;64169;47.240;11.312;2023-04-30T08:02:34;11.15;;;4.72;;
75589;SDS011;64169;47.240;11.312;2023-04-30T08:05:01;9.43;;;4.95;;
75589;SDS011;64169;47.240;11.312;2023-04-30T08:07:27;10.63;;;5.80;;
75589;SDS011;64169;47.240;11.312;2023-04-30T08:09:53;11.77;;;6.32;;
75589;SDS011;64169;47.240;11.312;2023-04-30T08:12:18;11.02;;;5.93;;
75589;SDS011;64169;47.240;11.312;2023-04-30T08:14:44;10.18;;;4.70;;
75589;SDS011;64169;47.240;11.312;2023-04-30T08:17:09;10.40;;;5.25;;
75589;SDS011;64169;47.240;11.312;2023-04-30T08:19:34;10.23;;;5.25;;
75589;SDS011;64169;47.240;11.312;2023-04-30T08:22:00;11.70;;;5.25;;
75589;SDS011;64169;47.240;11.312;2023-04-30T08:24:25;9.68;;;5.07;;
75589;SDS011;64169;47.240;11.312;2023-04-30T08:26:51;10.05;;;5.72;;
75589;SDS011;64169;47.240;11.312;2023-04-30T08:29:16;11.20;;;4.80;;
75589;SDS011;64169;47.240;11.312;2023-04-30T08:31:42;9.00;;;4.70;;
75589;SDS011;64169;47.240;11.312;2023-04-30T08:34:07;9.38;;;5.32;;
75589;SDS011;64169;47.240;11.312;2023-04-30T08:36:32;10.55;;;4.70;;
75589;SDS011;64169;47.240;11.312;2023-04-30T08:38:58;10.32;;;5.20;;
75589;SDS011;64169;47.240;11.312;2023-04-30T08:41:26;9.80;;;5.18;;
75589;SDS011;64169;47.240;11.312;2023-04-30T08:43:56;8.38;;;4.68;;
75589;SDS011;64169;47.240;11.312;2023-04-30T08:46:25;9.20;;;4.40;;
75589;SDS011;64169;47.240;11.312;2023-04-30T08:48:53;9.05;;;4.43;;
75589;SDS011;64169;47.240;11.312;2023-04-30T08:51:18;9.30;;;4.80;;
75589;SDS011;64169;47.240;11.312;2023-04-30T08:53:44;8.57;;;4.13;;
75589;SDS011;64169;47.240;11.312;2023-04-30T08:56:11;7.43;;;3.45;;
75589;SDS011;64169;47.240;11.312;2023-04-30T08:58:36;7.80;;;3.40;;
75589;SDS011;64169;47.240;11.312;2023-04-30T09:01:02;7.82;;;3.50;;
75589;SDS011;64169;47.240;11.312;2023-04-30T09:03:29;10.13;;;4.13;;
75589;SDS011;64169;47.240;11.312;2023-04-30T09:05:55;9.52;;;4.43;;
75589;SDS011;64169;47.240;11.312;2023-04-30T09:08:40;8.40;;;4.07;;
75589;SDS011;64169;47.240;11.312;2023-04-30T09:11:19;8.05;;;3.20;;
75589;SDS011;64169;47.240;11.312;2023-04-30T09:13:55;7.78;;;4.07;;
75589;SDS011;64169;47.240;11.312;2023-04-30T09:16:22;8.77;;;3.90;;
75589;SDS011;64169;47.240;11.312;2023-04-30T09:18:48;7.05;;;3.83;;
75589;SDS011;64169;47.240;11.312;2023-04-30T09:21:14;7.85;;;3.20;;
75589;SDS011;64169;47.240;11.312;2023-04-30T09:23:55;7.72;;;3.33;;
75589;SDS011;64169;47.240;11.312;2023-04-30T09:26:26;8.32;;;3.83;;
75589;SDS011;64169;47.240;11.312;2023-04-30T09:28:55;7.93;;;3.15;;
75589;SDS011;64169;47.240;11.312;2023-04-30T09:31:21;6.53;;;3.03;;
75589;SDS011;64169;47.240;11.312;2023-04-30T09:33:47;7.75;;;3.13;;
75589;SDS011;64169;47.240;11.312;2023-04-30T09:36:12;5.70;;;2.78;;
75589;SDS011;64169;47.240;11.312;2023-04-30T09:38:37;6.32;;;2.60;;
75589;SDS011;64169;47.240;11.312;2023-04-30T09:41:03;6.90;;;3.20;;
75589;SDS011;64169;47.240;11.312;2023-04-30T09:43:29;5.85;;;3.17;;
75589;SDS011;64169;47.240;11.312;2023-04-30T09:45:56;6.70;;;3.10;;
75589;SDS011;64169;47.240;11.312;2023-04-30T09:48:23;7.28;;;3.45;;
75589;SDS011;64169;47.240;11.312;2023-04-30T09:50:50;7.45;;;2.75;;
75589;SDS011;64169;47.240;11.312;2023-04-30T09:53:16;7.80;;;3.13;;
75589;SDS011;64169;47.240;11.312;2023-04-30T09:55:45;5.90;;;2.60;;
75589;SDS011;64169;47.240;11.312;2023-04-30T09:58:12;5.32;;;2.22;;
75589;SDS011;64169;47.240;11.312;2023-04-30T10:00:38;5.32;;;2.50;;
75589;SDS011;64169;47.240;11.312;2023-04-30T10:03:10;5.30;;;1.88;;
75589;SDS011;64169;47.240;11.312;2023-04-30T10:05:40;5.53;;;2.10;;
75589;SDS011;64169;47.240;11.312;2023-04-30T10:08:29;5.72;;;2.00;;
75589;SDS011;64169;47.240;11.312;2023-04-30T10:11:02;8.40;;;3.53;;
75589;SDS011;64169;47.240;11.312;2023-04-30T10:13:34;5.50;;;2.35;;
75589;SDS011;64169;47.240;11.312;2023-04-30T10:19:17;5.18;;;2.28;;
75589;SDS011;64169;47.240;11.312;2023-04-30T10:21:44;5.53;;;1.80;;
75589;SDS011;64169;47.240;11.312;2023-04-30T10:24:14;3.70;;;1.40;;
75589;SDS011;64169;47.240;11.312;2023-04-30T10:26:42;3.88;;;1.40;;
75589;SDS011;64169;47.240;11.312;2023-04-30T10:29:07;4.80;;;1.80;;
75589;SDS011;64169;47.240;11.312;2023-04-30T10:31:33;3.85;;;1.42;;
75589;SDS011;64169;47.240;11.312;2023-04-30T10:34:09;4.22;;;1.42;;
75589;SDS011;64169;47.240;11.312;2023-04-30T10:36:53;4.20;;;1.75;;
75589;SDS011;64169;47.240;11.312;2023-04-30T10:39:21;4.40;;;2.03;;
75589;SDS011;64169;47.240;11.312;2023-04-30T10:41:48;5.95;;;1.98;;
75589;SDS011;64169;47.240;11.312;2023-04-30T10:44:14;4.88;;;1.80;;
75589;SDS011;64169;47.240;11.312;2023-04-30T10:46:40;4.38;;;1.77;;
75589;SDS011;64169;47.240;11.312;2023-04-30T10:49:06;4.50;;;1.65;;
75589;SDS011;64169;47.240;11.312;2023-04-30T10:51:45;4.30;;;1.70;;
75589;SDS011;64169;47.240;11.312;2023-04-30T10:54:12;4.78;;;1.98;;
75589;SDS011;64169;47.240;11.312;2023-04-30T10:56:41;4.50;;;1.80;;
75589;SDS011;64169;47.240;11.312;2023-04-30T10:59:09;4.32;;;1.52;;
75589;SDS011;64169;47.240;11.312;2023-04-30T11:01:53;4.10;;;1.40;;
75589;SDS011;64169;47.240;11.312;2023-04-30T11:04:19;5.07;;;1.70;;
75589;SDS011;64169;47.240;11.312;2023-04-30T11:07:26;3.95;;;1.67;;
75589;SDS011;64169;47.240;11.312;2023-04-30T11:09:34;5.13;;;1.85;;
75589;SDS011;64169;47.240;11.312;2023-04-30T11:12:04;9.85;;;4.60;;
75589;SDS011;64169;47.240;11.312;2023-04-30T11:14:44;5.05;;;1.80;;
75589;SDS011;64169;47.240;11.312;2023-04-30T11:17:20;4.68;;;1.73;;
75589;SDS011;64169;47.240;11.312;2023-04-30T11:27:28;4.68;;;1.90;;
75589;SDS011;64169;47.240;11.312;2023-04-30T11:29:58;5.57;;;1.75;;
75589;SDS011;64169;47.240;11.312;2023-04-30T11:32:26;5.32;;;2.33;;
75589;SDS011;64169;47.240;11.312;2023-04-30T11:34:57;4.20;;;1.63;;
75589;SDS011;64169;47.240;11.312;2023-04-30T11:37:33;4.70;;;1.92;;
75589;SDS011;64169;47.240;11.312;2023-04-30T11:40:01;4.30;;;1.50;;
75589;SDS011;64169;47.240;11.312;2023-04-30T11:42:28;3.20;;;1.30;;
75589;SDS011;64169;47.240;11.312;2023-04-30T11:45:05;4.25;;;1.40;;
75589;SDS011;64169;47.240;11.312;2023-04-30T11:47:38;4.72;;;2.03;;
75589;SDS011;64169;47.240;11.312;2023-04-30T11:50:04;4.30;;;1.40;;
75589;SDS011;64169;47.240;11.312;2023-04-30T11:52:31;3.80;;;1.45;;
75589;SDS011;64169;47.240;11.312;2023-04-30T11:54:56;3.30;;;1.30;;
75589;SDS011;64169;47.240;11.312;2023-04-30T11:57:22;3.72;;;1.27;;
75589;SDS011;64169;47.240;11.312;2023-04-30T11:59:47;5.00;;;1.65;;
75589;SDS011;64169;47.240;11.312;2023-04-30T12:02:14;3.80;;;1.50;;
75589;SDS011;64169;47.240;11.312;2023-04-30T12:04:41;4.35;;;1.60;;
75589;SDS011;64169;47.240;11.312;2023-04-30T12:07:08;3.88;;;1.17;;
75589;SDS011;64169;47.240;11.312;2023-04-30T12:09:50;3.60;;;1.10;;
75589;SDS011;64169;47.240;11.312;2023-04-30T12:12:25;3.45;;;1.30;;
75589;SDS011;64169;47.240;11.312;2023-04-30T12:14:51;4.00;;;1.50;;
75589;SDS011;64169;47.240;11.312;2023-04-30T12:17:29;3.08;;;1.10;;
75589;SDS011;64169;47.240;11.312;2023-04-30T12:19:56;3.65;;;1.20;;
75589;SDS011;64169;47.240;11.312;2023-04-30T12:22:21;3.90;;;1.50;;
75589;SDS011;64169;47.240;11.312;2023-04-30T12:24:48;3.30;;;1.13;;
75589;SDS011;64169;47.240;11.312;2023-04-30T12:27:13;3.83;;;1.30;;
75589;SDS011;64169;47.240;11.312;2023-04-30T12:29:39;3.83;;;1.30;;
75589;SDS011;64169;47.240;11.312;2023-04-30T12:32:08;2.40;;;0.90;;
75589;SDS011;64169;47.240;11.312;2023-04-30T12:34:33;2.67;;;1.10;;
75589;SDS011;64169;47.240;11.312;2023-04-30T12:37:02;2.78;;;1.02;;
75589;SDS011;64169;47.240;11.312;2023-04-30T12:39:31;2.65;;;1.10;;
75589;SDS011;64169;47.240;11.312;2023-04-30T12:41:58;3.53;;;1.25;;
75589;SDS011;64169;47.240;11.312;2023-04-30T12:44:25;3.70;;;0.98;;
75589;SDS011;64169;47.240;11.312;2023-04-30T12:46:52;2.72;;;1.02;;
75589;SDS011;64169;47.240;11.312;2023-04-30T12:49:24;4.35;;;1.30;;
75589;SDS011;64169;47.240;11.312;2023-04-30T12:51:50;4.10;;;1.60;;
75589;SDS011;64169;47.240;11.312;2023-04-30T12:54:23;3.50;;;1.20;;
75589;SDS011;64169;47.240;11.312;2023-04-30T12:56:56;2.33;;;0.98;;
75589;SDS011;64169;47.240;11.312;2023-04-30T12:59:36;2.25;;;0.80;;
75589;SDS011;64169;47.240;11.312;2023-04-30T13:02:10;3.17;;;0.95;;
75589;SDS011;64169;47.240;11.312;2023-04-30T13:04:37;2.60;;;0.90;;
75589;SDS011;64169;47.240;11.312;2023-04-30T13:07:03;1.77;;;0.70;;
75589;SDS011;64169;47.240;11.312;2023-04-30T13:09:30;2.63;;;0.95;;
75589;SDS011;64169;47.240;11.312;2023-04-30T13:11:59;2.40;;;0.95;;
75589;SDS011;64169;47.240;11.312;2023-04-30T13:14:25;2.33;;;0.80;;
75589;SDS011;64169;47.240;11.312;2023-04-30T13:16:51;2.95;;;1.10;;
75589;SDS011;64169;47.240;11.312;2023-04-30T13:19:17;3.10;;;1.02;;
75589;SDS011;64169;47.240;11.312;2023-04-30T13:21:43;2.47;;;0.80;;
75589;SDS011;64169;47.240;11.312;2023-04-30T13:24:08;2.55;;;0.90;;
75589;SDS011;64169;47.240;11.312;2023-04-30T13:26:34;2.88;;;0.80;;
75589;SDS011;64169;47.240;11.312;2023-04-30T13:28:59;3.47;;;1.10;;
75589;SDS011;64169;47.240;11.312;2023-04-30T13:31:25;2.58;;;0.85;;
75589;SDS011;64169;47.240;11.312;2023-04-30T13:33:51;3.50;;;0.85;;
75589;SDS011;64169;47.240;11.312;2023-04-30T13:36:18;2.63;;;0.90;;
75589;SDS011;64169;47.240;11.312;2023-04-30T13:38:44;2.00;;;0.82;;
75589;SDS011;64169;47.240;11.312;2023-04-30T13:41:09;2.67;;;1.10;;
75589;SDS011;64169;47.240;11.312;2023-04-30T13:43:34;3.03;;;0.80;;
75589;SDS011;64169;47.240;11.312;2023-04-30T13:46:02;2.47;;;0.90;;
75589;SDS011;64169;47.240;11.312;2023-04-30T13:48:30;4.82;;;1.13;;
75589;SDS011;64169;47.240;11.312;2023-04-30T13:50:56;4.32;;;0.98;;
75589;SDS011;64169;47.240;11.312;2023-04-30T13:53:21;2.38;;;0.80;;
75589;SDS011;64169;47.240;11.312;2023-04-30T13:55:47;3.88;;;1.00;;
75589;SDS011;64169;47.240;11.312;2023-04-30T13:58:12;2.35;;;0.80;;
75589;SDS011;64169;47.240;11.312;2023-04-30T14:00:38;2.20;;;0.90;;
75589;SDS011;64169;47.240;11.312;2023-04-30T14:03:03;2.97;;;1.10;;
75589;SDS011;64169;47.240;11.312;2023-04-30T14:05:29;2.97;;;1.00;;
75589;SDS011;64169;47.240;11.312;2023-04-30T14:07:54;2.22;;;0.80;;
75589;SDS011;64169;47.240;11.312;2023-04-30T14:10:20;2.63;;;0.93;;
75589;SDS011;64169;47.240;11.312;2023-04-30T14:12:45;2.83;;;0.90;;
75589;SDS011;64169;47.240;11.312;2023-04-30T14:15:11;2.25;;;0.98;;
75589;SDS011;64169;47.240;11.312;2023-04-30T14:17:36;3.50;;;0.93;;
75589;SDS011;64169;47.240;11.312;2023-04-30T14:20:02;3.45;;;1.30;;
75589;SDS011;64169;47.240;11.312;2023-04-30T14:22:28;2.95;;;0.90;;
75589;SDS011;64169;47.240;11.312;2023-04-30T14:24:55;3.33;;;0.90;;
75589;SDS011;64169;47.240;11.312;2023-04-30T14:27:20;4.15;;;1.00;;
75589;SDS011;64169;47.240;11.312;2023-04-30T14:29:47;2.55;;;0.90;;
75589;SDS011;64169;47.240;11.312;2023-04-30T14:32:12;4.10;;;1.40;;
75589;SDS011;64169;47.240;11.312;2023-04-30T14:34:40;3.53;;;1.10;;
75589;SDS011;64169;47.240;11.312;2023-04-30T14:37:06;1.85;;;0.77;;
75589;SDS011;64169;47.240;11.312;2023-04-30T14:39:31;3.78;;;1.00;;
75589;SDS011;64169;47.240;11.312;2023-04-30T14:41:56;2.65;;;0.73;;
75589;SDS011;64169;47.240;11.312;2023-04-30T14:44:22;2.53;;;0.95;;
75589;SDS011;64169;47.240;11.312;2023-04-30T14:46:49;3.33;;;1.00;;
75589;SDS011;64169;47.240;11.312;2023-04-30T14:49:15;3.25;;;1.00;;
75589;SDS011;64169;47.240;11.312;2023-04-30T14:51:40;3.40;;;1.00;;
75589;SDS011;64169;47.240;11.312;2023-04-30T14:54:05;2.92;;;1.05;;
75589;SDS011;64169;47.240;11.312;2023-04-30T14:56:31;5.03;;;1.40;;
75589;SDS011;64169;47.240;11.312;2023-04-30T14:58:56;2.85;;;0.98;;
75589;SDS011;64169;47.240;11.312;2023-04-30T15:01:22;3.30;;;1.20;;
75589;SDS011;64169;47.240;11.312;2023-04-30T15:03:47;4.10;;;1.23;;